sensor_id;sensor_type;location;lat;lon;timestamp;P1;durP1;ratioP1;P2;durP2;ratioP2
5869;SDS011;2961;47.702;9.410;2023-02-21T00:02:06;15.10;;;8.27;;
5869;SDS011;2961;47.702;9.410;2023-02-21T00:04:52;16.30;;;8.30;;
5869;SDS011;2961;47.702;9.410;2023-02-21T00:07:36;12.03;;;7.77;;
5869;SDS011;2961;47.702;9.410;2023-02-21T00:10:21;14.13;;;8.47;;
5869;SDS011;2961;47.702;9.410;2023-02-21T00:13:06;11.30;;;7.40;;
5869;SDS011;2961;47.702;9.410;2023-02-21T00:15:51;10.70;;;7.37;;
5869;SDS011;2961;47.702;9.410;2023-02-21T00:18:35;12.40;;;8.70;;
5869;SDS011;2961;47.702;9.410;2023-02-21T00:21:20;13.60;;;8.60;;
5869;SDS011;2961;47.702;9.410;2023-02-21T00:24:04;11.47;;;7.40;;
5869;SDS011;2961;47.702;9.410;2023-02-21T00:26:49;12.83;;;8.00;;
5869;SDS011;2961;47.702;9.410;2023-02-21T00:29:35;11.60;;;7.50;;
5869;SDS011;2961;47.702;9.410;2023-02-21T00:32:19;14.40;;;7.00;;
5869;SDS011;2961;47.702;9.410;2023-02-21T00:35:03;10.00;;;7.10;;
5869;SDS011;2961;47.702;9.410;2023-02-21T00:37:48;17.03;;;7.13;;
5869;SDS011;2961;47.702;9.410;2023-02-21T00:40:33;8.47;;;6.23;;
5869;SDS011;2961;47.702;9.410;2023-02-21T00:43:17;10.33;;;7.90;;
5869;SDS011;2961;47.702;9.410;2023-02-21T00:46:03;12.80;;;7.33;;
5869;SDS011;2961;47.702;9.410;2023-02-21T00:48:47;9.93;;;6.70;;
5869;SDS011;2961;47.702;9.410;2023-02-21T00:51:31;9.20;;;7.60;;
5869;SDS011;2961;47.702;9.410;2023-02-21T00:54:16;22.27;;;6.87;;
5869;SDS011;2961;47.702;9.410;2023-02-21T00:57:00;12.77;;;8.03;;
5869;SDS011;2961;47.702;9.410;2023-02-21T00:59:44;14.73;;;7.40;;
5869;SDS011;2961;47.702;9.410;2023-02-21T01:02:29;11.00;;;8.43;;
5869;SDS011;2961;47.702;9.410;2023-02-21T01:05:13;12.17;;;7.87;;
5869;SDS011;2961;47.702;9.410;2023-02-21T01:07:58;12.03;;;6.90;;
5869;SDS011;2961;47.702;9.410;2023-02-21T01:10:42;12.73;;;7.40;;
5869;SDS011;2961;47.702;9.410;2023-02-21T01:13:26;11.47;;;7.20;;
5869;SDS011;2961;47.702;9.410;2023-02-21T01:16:11;19.80;;;7.70;;
5869;SDS011;2961;47.702;9.410;2023-02-21T01:18:56;11.90;;;7.73;;
5869;SDS011;2961;47.702;9.410;2023-02-21T01:21:40;11.33;;;7.57;;
5869;SDS011;2961;47.702;9.410;2023-02-21T01:24:24;15.53;;;8.07;;
5869;SDS011;2961;47.702;9.410;2023-02-21T01:27:09;14.60;;;8.37;;
5869;SDS011;2961;47.702;9.410;2023-02-21T01:29:53;11.57;;;6.90;;
5869;SDS011;2961;47.702;9.410;2023-02-21T01:32:37;14.90;;;7.63;;
5869;SDS011;2961;47.702;9.410;2023-02-21T01:35:22;15.00;;;7.70;;
5869;SDS011;2961;47.702;9.410;2023-02-21T01:38:07;9.43;;;7.40;;
5869;SDS011;2961;47.702;9.410;2023-02-21T01:40:51;18.23;;;6.63;;
5869;SDS011;2961;47.702;9.410;2023-02-21T01:43:35;11.63;;;7.30;;
5869;SDS011;2961;47.702;9.410;2023-02-21T01:46:19;11.10;;;7.53;;
5869;SDS011;2961;47.702;9.410;2023-02-21T01:49:05;11.57;;;7.50;;
5869;SDS011;2961;47.702;9.410;2023-02-21T01:51:53;14.93;;;9.10;;
5869;SDS011;2961;47.702;9.410;2023-02-21T01:54:39;13.80;;;8.20;;
5869;SDS011;2961;47.702;9.410;2023-02-21T01:57:26;10.63;;;7.23;;
5869;SDS011;2961;47.702;9.410;2023-02-21T02:00:11;19.50;;;8.50;;
5869;SDS011;2961;47.702;9.410;2023-02-21T02:02:58;11.13;;;7.03;;
5869;SDS011;2961;47.702;9.410;2023-02-21T02:05:45;14.63;;;8.97;;
5869;SDS011;2961;47.702;9.410;2023-02-21T02:08:32;15.17;;;7.77;;
5869;SDS011;2961;47.702;9.410;2023-02-21T02:11:21;14.00;;;7.73;;
5869;SDS011;2961;47.702;9.410;2023-02-21T02:14:34;13.00;;;8.20;;
5869;SDS011;2961;47.702;9.410;2023-02-21T02:17:15;12.70;;;7.53;;
5869;SDS011;2961;47.702;9.410;2023-02-21T02:20:07;11.30;;;6.93;;
5869;SDS011;2961;47.702;9.410;2023-02-21T02:22:59;10.53;;;7.43;;
5869;SDS011;2961;47.702;9.410;2023-02-21T02:25:58;15.03;;;7.10;;
5869;SDS011;2961;47.702;9.410;2023-02-21T02:28:53;9.60;;;7.60;;
5869;SDS011;2961;47.702;9.410;2023-02-21T02:31:40;13.57;;;7.60;;
5869;SDS011;2961;47.702;9.410;2023-02-21T02:37:22;9.40;;;7.40;;
5869;SDS011;2961;47.702;9.410;2023-02-21T02:39:55;13.00;;;7.40;;
5869;SDS011;2961;47.702;9.410;2023-02-21T02:42:30;17.50;;;7.77;;
5869;SDS011;2961;47.702;9.410;2023-02-21T02:45:07;9.00;;;6.57;;
5869;SDS011;2961;47.702;9.410;2023-02-21T02:47:39;7.93;;;6.30;;
5869;SDS011;2961;47.702;9.410;2023-02-21T02:50:10;12.90;;;8.00;;
5869;SDS011;2961;47.702;9.410;2023-02-21T02:52:47;10.13;;;7.27;;
5869;SDS011;2961;47.702;9.410;2023-02-21T02:55:21;13.20;;;7.20;;
5869;SDS011;2961;47.702;9.410;2023-02-21T02:57:53;18.27;;;8.13;;
5869;SDS011;2961;47.702;9.410;2023-02-21T03:00:20;9.30;;;7.20;;
5869;SDS011;2961;47.702;9.410;2023-02-21T03:02:49;12.00;;;8.27;;
5869;SDS011;2961;47.702;9.410;2023-02-21T03:05:33;9.97;;;7.13;;
5869;SDS011;2961;47.702;9.410;2023-02-21T03:08:16;8.60;;;6.10;;
5869;SDS011;2961;47.702;9.410;2023-02-21T03:10:49;10.77;;;7.73;;
5869;SDS011;2961;47.702;9.410;2023-02-21T03:13:24;12.87;;;7.30;;
5869;SDS011;2961;47.702;9.410;2023-02-21T03:16:02;12.00;;;7.80;;
5869;SDS011;2961;47.702;9.410;2023-02-21T03:18:36;12.13;;;7.43;;
5869;SDS011;2961;47.702;9.410;2023-02-21T03:21:10;9.20;;;6.80;;
5869;SDS011;2961;47.702;9.410;2023-02-21T03:23:40;10.43;;;7.07;;
5869;SDS011;2961;47.702;9.410;2023-02-21T03:26:10;8.90;;;6.20;;
5869;SDS011;2961;47.702;9.410;2023-02-21T03:28:38;10.30;;;7.70;;
5869;SDS011;2961;47.702;9.410;2023-02-21T03:31:06;10.23;;;6.60;;
5869;SDS011;2961;47.702;9.410;2023-02-21T03:33:36;12.20;;;6.80;;
5869;SDS011;2961;47.702;9.410;2023-02-21T03:36:03;17.30;;;7.70;;
5869;SDS011;2961;47.702;9.410;2023-02-21T03:41:18;15.77;;;7.57;;
5869;SDS011;2961;47.702;9.410;2023-02-21T03:43:44;10.97;;;7.80;;
5869;SDS011;2961;47.702;9.410;2023-02-21T03:46:11;10.60;;;6.97;;
5869;SDS011;2961;47.702;9.410;2023-02-21T03:48:38;12.63;;;8.80;;
5869;SDS011;2961;47.702;9.410;2023-02-21T03:51:05;10.73;;;7.90;;
5869;SDS011;2961;47.702;9.410;2023-02-21T03:53:32;11.10;;;7.70;;
5869;SDS011;2961;47.702;9.410;2023-02-21T03:56:00;12.10;;;7.70;;
5869;SDS011;2961;47.702;9.410;2023-02-21T03:58:27;12.43;;;7.93;;
5869;SDS011;2961;47.702;9.410;2023-02-21T04:00:53;12.77;;;7.93;;
5869;SDS011;2961;47.702;9.410;2023-02-21T04:03:21;10.33;;;7.23;;
5869;SDS011;2961;47.702;9.410;2023-02-21T04:05:48;8.60;;;5.97;;
5869;SDS011;2961;47.702;9.410;2023-02-21T04:08:15;9.27;;;6.23;;
5869;SDS011;2961;47.702;9.410;2023-02-21T04:10:42;11.27;;;6.83;;
5869;SDS011;2961;47.702;9.410;2023-02-21T04:13:11;11.60;;;7.43;;
5869;SDS011;2961;47.702;9.410;2023-02-21T04:15:38;10.77;;;7.03;;
5869;SDS011;2961;47.702;9.410;2023-02-21T04:18:05;10.30;;;7.10;;
5869;SDS011;2961;47.702;9.410;2023-02-21T04:20:32;12.07;;;7.80;;
5869;SDS011;2961;47.702;9.410;2023-02-21T04:22:58;10.67;;;6.80;;
5869;SDS011;2961;47.702;9.410;2023-02-21T04:25:25;11.20;;;8.30;;
5869;SDS011;2961;47.702;9.410;2023-02-21T04:27:52;15.20;;;7.60;;
5869;SDS011;2961;47.702;9.410;2023-02-21T04:30:20;10.83;;;7.30;;
5869;SDS011;2961;47.702;9.410;2023-02-21T04:32:48;11.20;;;7.23;;
5869;SDS011;2961;47.702;9.410;2023-02-21T04:35:15;13.60;;;7.00;;
5869;SDS011;2961;47.702;9.410;2023-02-21T04:37:42;15.77;;;7.17;;
5869;SDS011;2961;47.702;9.410;2023-02-21T04:40:09;8.93;;;6.50;;
5869;SDS011;2961;47.702;9.410;2023-02-21T04:42:36;10.87;;;7.97;;
5869;SDS011;2961;47.702;9.410;2023-02-21T04:45:03;10.87;;;7.60;;
5869;SDS011;2961;47.702;9.410;2023-02-21T04:47:32;13.47;;;7.70;;
5869;SDS011;2961;47.702;9.410;2023-02-21T04:49:58;8.33;;;6.63;;
5869;SDS011;2961;47.702;9.410;2023-02-21T04:52:25;11.60;;;6.40;;
5869;SDS011;2961;47.702;9.410;2023-02-21T04:54:52;9.03;;;5.60;;
5869;SDS011;2961;47.702;9.410;2023-02-21T04:57:19;10.57;;;7.50;;
5869;SDS011;2961;47.702;9.410;2023-02-21T04:59:46;12.30;;;7.30;;
5869;SDS011;2961;47.702;9.410;2023-02-21T05:02:13;9.33;;;6.43;;
5869;SDS011;2961;47.702;9.410;2023-02-21T05:04:41;13.23;;;8.43;;
5869;SDS011;2961;47.702;9.410;2023-02-21T05:07:08;13.20;;;8.33;;
5869;SDS011;2961;47.702;9.410;2023-02-21T05:09:35;20.57;;;7.80;;
5869;SDS011;2961;47.702;9.410;2023-02-21T05:12:02;17.43;;;7.60;;
5869;SDS011;2961;47.702;9.410;2023-02-21T05:14:35;13.60;;;8.10;;
5869;SDS011;2961;47.702;9.410;2023-02-21T05:17:02;14.40;;;6.63;;
5869;SDS011;2961;47.702;9.410;2023-02-21T05:19:28;12.17;;;8.20;;
5869;SDS011;2961;47.702;9.410;2023-02-21T05:21:58;12.83;;;7.70;;
5869;SDS011;2961;47.702;9.410;2023-02-21T05:24:26;11.77;;;6.93;;
5869;SDS011;2961;47.702;9.410;2023-02-21T05:26:54;7.97;;;5.83;;
5869;SDS011;2961;47.702;9.410;2023-02-21T05:29:21;10.13;;;6.63;;
5869;SDS011;2961;47.702;9.410;2023-02-21T05:31:48;13.63;;;9.20;;
5869;SDS011;2961;47.702;9.410;2023-02-21T05:34:15;12.10;;;7.00;;
5869;SDS011;2961;47.702;9.410;2023-02-21T05:36:43;12.87;;;7.87;;
5869;SDS011;2961;47.702;9.410;2023-02-21T05:39:12;14.30;;;8.40;;
5869;SDS011;2961;47.702;9.410;2023-02-21T05:41:44;12.33;;;7.60;;
5869;SDS011;2961;47.702;9.410;2023-02-21T05:44:12;13.90;;;7.90;;
5869;SDS011;2961;47.702;9.410;2023-02-21T05:46:40;10.07;;;8.13;;
5869;SDS011;2961;47.702;9.410;2023-02-21T05:49:07;14.03;;;7.40;;
5869;SDS011;2961;47.702;9.410;2023-02-21T05:51:34;14.53;;;7.93;;
5869;SDS011;2961;47.702;9.410;2023-02-21T05:54:02;13.37;;;7.83;;
5869;SDS011;2961;47.702;9.410;2023-02-21T05:56:35;9.87;;;7.20;;
5869;SDS011;2961;47.702;9.410;2023-02-21T05:59:03;13.37;;;7.77;;
5869;SDS011;2961;47.702;9.410;2023-02-21T06:01:31;16.40;;;8.03;;
5869;SDS011;2961;47.702;9.410;2023-02-21T06:03:57;23.20;;;8.83;;
5869;SDS011;2961;47.702;9.410;2023-02-21T06:06:24;12.30;;;8.17;;
5869;SDS011;2961;47.702;9.410;2023-02-21T06:08:51;13.23;;;8.27;;
5869;SDS011;2961;47.702;9.410;2023-02-21T06:11:21;15.10;;;8.00;;
5869;SDS011;2961;47.702;9.410;2023-02-21T06:13:50;11.50;;;7.70;;
5869;SDS011;2961;47.702;9.410;2023-02-21T06:16:17;15.03;;;8.80;;
5869;SDS011;2961;47.702;9.410;2023-02-21T06:18:44;17.73;;;7.87;;
5869;SDS011;2961;47.702;9.410;2023-02-21T06:21:14;11.00;;;7.73;;
5869;SDS011;2961;47.702;9.410;2023-02-21T06:23:41;9.27;;;6.70;;
5869;SDS011;2961;47.702;9.410;2023-02-21T06:26:08;12.97;;;8.43;;
5869;SDS011;2961;47.702;9.410;2023-02-21T06:28:34;17.50;;;8.33;;
5869;SDS011;2961;47.702;9.410;2023-02-21T06:31:03;12.27;;;7.63;;
5869;SDS011;2961;47.702;9.410;2023-02-21T06:33:30;13.83;;;8.03;;
5869;SDS011;2961;47.702;9.410;2023-02-21T06:35:57;18.20;;;8.40;;
5869;SDS011;2961;47.702;9.410;2023-02-21T06:38:28;18.70;;;9.03;;
5869;SDS011;2961;47.702;9.410;2023-02-21T06:40:54;11.40;;;7.80;;
5869;SDS011;2961;47.702;9.410;2023-02-21T06:43:21;10.43;;;7.23;;
5869;SDS011;2961;47.702;9.410;2023-02-21T06:45:48;10.07;;;7.47;;
5869;SDS011;2961;47.702;9.410;2023-02-21T06:48:16;14.13;;;8.10;;
5869;SDS011;2961;47.702;9.410;2023-02-21T06:50:43;16.63;;;9.37;;
5869;SDS011;2961;47.702;9.410;2023-02-21T06:53:10;15.53;;;8.77;;
5869;SDS011;2961;47.702;9.410;2023-02-21T06:55:37;13.47;;;8.93;;
5869;SDS011;2961;47.702;9.410;2023-02-21T06:58:03;13.63;;;9.40;;
5869;SDS011;2961;47.702;9.410;2023-02-21T07:00:30;14.53;;;7.90;;
5869;SDS011;2961;47.702;9.410;2023-02-21T07:02:57;14.53;;;8.77;;
5869;SDS011;2961;47.702;9.410;2023-02-21T07:05:25;16.97;;;9.90;;
5869;SDS011;2961;47.702;9.410;2023-02-21T07:07:53;13.20;;;7.97;;
5869;SDS011;2961;47.702;9.410;2023-02-21T07:10:20;18.47;;;9.03;;
5869;SDS011;2961;47.702;9.410;2023-02-21T07:13:07;14.60;;;8.60;;
5869;SDS011;2961;47.702;9.410;2023-02-21T07:15:34;12.73;;;9.97;;
5869;SDS011;2961;47.702;9.410;2023-02-21T07:18:00;17.30;;;10.20;;
5869;SDS011;2961;47.702;9.410;2023-02-21T07:20:29;14.00;;;8.97;;
5869;SDS011;2961;47.702;9.410;2023-02-21T07:22:57;11.77;;;9.67;;
5869;SDS011;2961;47.702;9.410;2023-02-21T07:25:24;14.30;;;10.13;;
5869;SDS011;2961;47.702;9.410;2023-02-21T07:28:09;19.27;;;10.00;;
5869;SDS011;2961;47.702;9.410;2023-02-21T07:30:36;20.97;;;9.67;;
5869;SDS011;2961;47.702;9.410;2023-02-21T07:33:02;14.90;;;10.60;;
5869;SDS011;2961;47.702;9.410;2023-02-21T07:35:31;15.27;;;10.60;;
5869;SDS011;2961;47.702;9.410;2023-02-21T07:37:57;17.20;;;10.33;;
5869;SDS011;2961;47.702;9.410;2023-02-21T07:40:24;21.07;;;11.60;;
5869;SDS011;2961;47.702;9.410;2023-02-21T07:42:51;17.00;;;11.17;;
5869;SDS011;2961;47.702;9.410;2023-02-21T07:45:18;14.37;;;10.10;;
5869;SDS011;2961;47.702;9.410;2023-02-21T07:47:44;12.77;;;8.73;;
5869;SDS011;2961;47.702;9.410;2023-02-21T07:50:14;12.90;;;8.60;;
5869;SDS011;2961;47.702;9.410;2023-02-21T07:52:42;13.80;;;9.00;;
5869;SDS011;2961;47.702;9.410;2023-02-21T07:55:11;23.03;;;10.40;;
5869;SDS011;2961;47.702;9.410;2023-02-21T07:57:37;20.43;;;11.90;;
5869;SDS011;2961;47.702;9.410;2023-02-21T08:00:04;16.50;;;11.27;;
5869;SDS011;2961;47.702;9.410;2023-02-21T08:02:32;24.43;;;10.80;;
5869;SDS011;2961;47.702;9.410;2023-02-21T08:04:59;17.07;;;11.27;;
5869;SDS011;2961;47.702;9.410;2023-02-21T08:07:25;19.23;;;12.40;;
5869;SDS011;2961;47.702;9.410;2023-02-21T08:09:53;23.07;;;10.90;;
5869;SDS011;2961;47.702;9.410;2023-02-21T08:12:20;16.80;;;11.87;;
5869;SDS011;2961;47.702;9.410;2023-02-21T08:14:47;18.00;;;11.47;;
5869;SDS011;2961;47.702;9.410;2023-02-21T08:17:14;20.00;;;13.10;;
5869;SDS011;2961;47.702;9.410;2023-02-21T08:19:41;20.57;;;13.53;;
5869;SDS011;2961;47.702;9.410;2023-02-21T08:22:08;20.70;;;13.27;;
5869;SDS011;2961;47.702;9.410;2023-02-21T08:24:35;16.90;;;12.60;;
5869;SDS011;2961;47.702;9.410;2023-02-21T08:27:03;17.07;;;13.40;;
5869;SDS011;2961;47.702;9.410;2023-02-21T08:29:30;21.53;;;13.87;;
5869;SDS011;2961;47.702;9.410;2023-02-21T08:31:56;21.23;;;14.10;;
5869;SDS011;2961;47.702;9.410;2023-02-21T08:34:23;21.70;;;14.20;;
5869;SDS011;2961;47.702;9.410;2023-02-21T08:36:53;27.03;;;15.30;;
5869;SDS011;2961;47.702;9.410;2023-02-21T08:39:20;27.80;;;15.57;;
5869;SDS011;2961;47.702;9.410;2023-02-21T08:41:47;23.13;;;13.93;;
5869;SDS011;2961;47.702;9.410;2023-02-21T08:44:16;21.70;;;15.13;;
5869;SDS011;2961;47.702;9.410;2023-02-21T08:46:45;24.83;;;14.20;;
5869;SDS011;2961;47.702;9.410;2023-02-21T08:49:12;22.63;;;13.83;;
5869;SDS011;2961;47.702;9.410;2023-02-21T08:51:39;27.43;;;17.67;;
5869;SDS011;2961;47.702;9.410;2023-02-21T08:54:06;24.97;;;16.70;;
5869;SDS011;2961;47.702;9.410;2023-02-21T08:56:33;26.67;;;16.60;;
5869;SDS011;2961;47.702;9.410;2023-02-21T08:59:00;25.87;;;16.20;;
5869;SDS011;2961;47.702;9.410;2023-02-21T09:01:31;25.30;;;16.73;;
5869;SDS011;2961;47.702;9.410;2023-02-21T09:03:58;25.30;;;17.60;;
5869;SDS011;2961;47.702;9.410;2023-02-21T09:06:25;23.17;;;15.70;;
5869;SDS011;2961;47.702;9.410;2023-02-21T09:08:52;26.90;;;16.17;;
5869;SDS011;2961;47.702;9.410;2023-02-21T09:11:19;20.77;;;15.30;;
5869;SDS011;2961;47.702;9.410;2023-02-21T09:13:46;26.47;;;17.50;;
5869;SDS011;2961;47.702;9.410;2023-02-21T09:16:13;26.53;;;17.43;;
5869;SDS011;2961;47.702;9.410;2023-02-21T09:18:41;30.17;;;17.57;;
5869;SDS011;2961;47.702;9.410;2023-02-21T09:21:08;23.83;;;17.07;;
5869;SDS011;2961;47.702;9.410;2023-02-21T09:23:34;33.90;;;21.23;;
5869;SDS011;2961;47.702;9.410;2023-02-21T09:26:01;31.63;;;22.00;;
5869;SDS011;2961;47.702;9.410;2023-02-21T09:28:28;37.60;;;22.67;;
5869;SDS011;2961;47.702;9.410;2023-02-21T09:30:55;30.47;;;21.30;;
5869;SDS011;2961;47.702;9.410;2023-02-21T09:33:22;32.90;;;22.50;;
5869;SDS011;2961;47.702;9.410;2023-02-21T09:35:50;33.67;;;22.70;;
5869;SDS011;2961;47.702;9.410;2023-02-21T09:38:18;27.90;;;19.67;;
5869;SDS011;2961;47.702;9.410;2023-02-21T09:40:45;30.90;;;19.07;;
5869;SDS011;2961;47.702;9.410;2023-02-21T09:43:16;34.60;;;23.30;;
5869;SDS011;2961;47.702;9.410;2023-02-21T09:45:46;29.53;;;20.83;;
5869;SDS011;2961;47.702;9.410;2023-02-21T09:48:17;29.93;;;21.73;;
5869;SDS011;2961;47.702;9.410;2023-02-21T09:50:47;29.33;;;20.47;;
5869;SDS011;2961;47.702;9.410;2023-02-21T09:53:18;28.47;;;19.73;;
5869;SDS011;2961;47.702;9.410;2023-02-21T09:55:47;28.20;;;17.53;;
5869;SDS011;2961;47.702;9.410;2023-02-21T09:58:17;28.63;;;20.03;;
5869;SDS011;2961;47.702;9.410;2023-02-21T10:00:45;25.20;;;17.57;;
5869;SDS011;2961;47.702;9.410;2023-02-21T10:03:25;27.60;;;20.13;;
5869;SDS011;2961;47.702;9.410;2023-02-21T10:06:08;30.57;;;20.03;;
5869;SDS011;2961;47.702;9.410;2023-02-21T10:08:43;26.90;;;18.07;;
5869;SDS011;2961;47.702;9.410;2023-02-21T10:11:29;23.10;;;17.03;;
5869;SDS011;2961;47.702;9.410;2023-02-21T10:14:05;32.57;;;18.07;;
5869;SDS011;2961;47.702;9.410;2023-02-21T10:16:45;22.17;;;16.50;;
5869;SDS011;2961;47.702;9.410;2023-02-21T10:19:17;20.40;;;14.43;;
5869;SDS011;2961;47.702;9.410;2023-02-21T10:21:50;28.13;;;18.10;;
5869;SDS011;2961;47.702;9.410;2023-02-21T10:24:21;26.03;;;17.50;;
5869;SDS011;2961;47.702;9.410;2023-02-21T10:26:51;19.27;;;14.80;;
5869;SDS011;2961;47.702;9.410;2023-02-21T10:29:24;23.50;;;17.03;;
5869;SDS011;2961;47.702;9.410;2023-02-21T10:31:56;24.27;;;16.50;;
5869;SDS011;2961;47.702;9.410;2023-02-21T10:34:28;26.83;;;18.33;;
5869;SDS011;2961;47.702;9.410;2023-02-21T10:36:56;27.90;;;16.50;;
5869;SDS011;2961;47.702;9.410;2023-02-21T10:39:31;25.77;;;17.10;;
5869;SDS011;2961;47.702;9.410;2023-02-21T10:42:03;19.80;;;14.80;;
5869;SDS011;2961;47.702;9.410;2023-02-21T10:44:31;25.20;;;15.20;;
5869;SDS011;2961;47.702;9.410;2023-02-21T10:47:01;20.10;;;15.70;;
5869;SDS011;2961;47.702;9.410;2023-02-21T10:49:33;22.10;;;15.37;;
5869;SDS011;2961;47.702;9.410;2023-02-21T10:52:09;25.40;;;15.07;;
5869;SDS011;2961;47.702;9.410;2023-02-21T10:54:39;17.83;;;13.93;;
5869;SDS011;2961;47.702;9.410;2023-02-21T10:57:07;24.83;;;15.20;;
5869;SDS011;2961;47.702;9.410;2023-02-21T10:59:38;27.53;;;17.07;;
5869;SDS011;2961;47.702;9.410;2023-02-21T11:02:23;25.43;;;15.47;;
5869;SDS011;2961;47.702;9.410;2023-02-21T11:04:54;19.67;;;14.43;;
5869;SDS011;2961;47.702;9.410;2023-02-21T11:07:31;20.63;;;15.20;;
5869;SDS011;2961;47.702;9.410;2023-02-21T11:10:00;22.80;;;14.60;;
5869;SDS011;2961;47.702;9.410;2023-02-21T11:12:27;26.37;;;15.90;;
5869;SDS011;2961;47.702;9.410;2023-02-21T11:17:44;143.10;;;43.37;;
5869;SDS011;2961;47.702;9.410;2023-02-21T11:20:15;55.63;;;21.83;;
5869;SDS011;2961;47.702;9.410;2023-02-21T11:22:44;32.00;;;17.37;;
5869;SDS011;2961;47.702;9.410;2023-02-21T11:25:17;17.80;;;13.50;;
5869;SDS011;2961;47.702;9.410;2023-02-21T11:28:01;23.98;;;15.38;;
5869;SDS011;2961;47.702;9.410;2023-02-21T11:30:30;14.43;;;11.83;;
5869;SDS011;2961;47.702;9.410;2023-02-21T11:32:59;25.37;;;13.97;;
5869;SDS011;2961;47.702;9.410;2023-02-21T11:35:29;15.27;;;12.60;;
5869;SDS011;2961;47.702;9.410;2023-02-21T11:38:00;18.97;;;12.90;;
5869;SDS011;2961;47.702;9.410;2023-02-21T11:40:32;27.80;;;11.73;;
5869;SDS011;2961;47.702;9.410;2023-02-21T11:46:05;22.93;;;13.10;;
5869;SDS011;2961;47.702;9.410;2023-02-21T11:48:44;19.37;;;11.27;;
5869;SDS011;2961;47.702;9.410;2023-02-21T11:51:33;16.07;;;10.20;;
5869;SDS011;2961;47.702;9.410;2023-02-21T11:54:04;18.53;;;11.83;;
5869;SDS011;2961;47.702;9.410;2023-02-21T11:56:48;13.10;;;10.43;;
5869;SDS011;2961;47.702;9.410;2023-02-21T11:59:23;19.30;;;11.77;;
5869;SDS011;2961;47.702;9.410;2023-02-21T12:01:59;21.07;;;11.20;;
5869;SDS011;2961;47.702;9.410;2023-02-21T12:04:46;13.90;;;11.10;;
5869;SDS011;2961;47.702;9.410;2023-02-21T12:07:26;18.83;;;11.20;;
5869;SDS011;2961;47.702;9.410;2023-02-21T12:10:04;22.90;;;13.47;;
5869;SDS011;2961;47.702;9.410;2023-02-21T12:12:46;18.90;;;11.00;;
5869;SDS011;2961;47.702;9.410;2023-02-21T12:15:21;18.07;;;11.77;;
5869;SDS011;2961;47.702;9.410;2023-02-21T12:17:56;17.10;;;10.87;;
5869;SDS011;2961;47.702;9.410;2023-02-21T12:20:36;14.43;;;9.67;;
5869;SDS011;2961;47.702;9.410;2023-02-21T12:23:15;13.33;;;9.90;;
5869;SDS011;2961;47.702;9.410;2023-02-21T12:25:57;14.63;;;9.17;;
5869;SDS011;2961;47.702;9.410;2023-02-21T12:28:49;14.67;;;9.60;;
5869;SDS011;2961;47.702;9.410;2023-02-21T12:31:29;16.30;;;11.07;;
5869;SDS011;2961;47.702;9.410;2023-02-21T12:34:08;14.93;;;9.20;;
5869;SDS011;2961;47.702;9.410;2023-02-21T12:37:11;13.77;;;9.07;;
5869;SDS011;2961;47.702;9.410;2023-02-21T12:39:51;12.30;;;9.40;;
5869;SDS011;2961;47.702;9.410;2023-02-21T12:42:39;18.10;;;10.37;;
5869;SDS011;2961;47.702;9.410;2023-02-21T12:45:25;15.03;;;8.83;;
5869;SDS011;2961;47.702;9.410;2023-02-21T12:48:04;12.47;;;9.00;;
5869;SDS011;2961;47.702;9.410;2023-02-21T12:50:37;14.43;;;9.03;;
5869;SDS011;2961;47.702;9.410;2023-02-21T12:53:09;12.20;;;9.07;;
5869;SDS011;2961;47.702;9.410;2023-02-21T12:55:41;14.00;;;8.17;;
5869;SDS011;2961;47.702;9.410;2023-02-21T12:58:29;11.53;;;8.60;;
5869;SDS011;2961;47.702;9.410;2023-02-21T13:01:01;8.00;;;6.83;;
5869;SDS011;2961;47.702;9.410;2023-02-21T13:03:39;8.93;;;6.60;;
5869;SDS011;2961;47.702;9.410;2023-02-21T13:06:14;17.03;;;8.40;;
5869;SDS011;2961;47.702;9.410;2023-02-21T13:08:52;10.87;;;7.77;;
5869;SDS011;2961;47.702;9.410;2023-02-21T13:11:28;13.73;;;8.67;;
5869;SDS011;2961;47.702;9.410;2023-02-21T13:14:00;12.73;;;8.00;;
5869;SDS011;2961;47.702;9.410;2023-02-21T13:16:29;14.47;;;9.70;;
5869;SDS011;2961;47.702;9.410;2023-02-21T13:18:57;11.43;;;8.97;;
5869;SDS011;2961;47.702;9.410;2023-02-21T13:21:33;12.47;;;9.40;;
5869;SDS011;2961;47.702;9.410;2023-02-21T13:24:14;12.57;;;9.33;;
5869;SDS011;2961;47.702;9.410;2023-02-21T13:26:53;18.10;;;9.60;;
5869;SDS011;2961;47.702;9.410;2023-02-21T13:29:42;10.73;;;9.10;;
5869;SDS011;2961;47.702;9.410;2023-02-21T13:32:11;10.37;;;8.90;;
5869;SDS011;2961;47.702;9.410;2023-02-21T13:34:41;12.80;;;8.57;;
5869;SDS011;2961;47.702;9.410;2023-02-21T13:37:13;12.43;;;9.20;;
5869;SDS011;2961;47.702;9.410;2023-02-21T13:39:43;14.10;;;8.00;;
5869;SDS011;2961;47.702;9.410;2023-02-21T13:42:17;11.43;;;9.03;;
5869;SDS011;2961;47.702;9.410;2023-02-21T13:44:46;10.10;;;8.90;;
5869;SDS011;2961;47.702;9.410;2023-02-21T13:47:16;13.43;;;9.33;;
5869;SDS011;2961;47.702;9.410;2023-02-21T13:49:52;12.88;;;9.05;;
5869;SDS011;2961;47.702;9.410;2023-02-21T14:00:55;9.85;;;7.90;;
5869;SDS011;2961;47.702;9.410;2023-02-21T14:03:39;10.10;;;7.20;;
5869;SDS011;2961;47.702;9.410;2023-02-21T14:06:28;10.03;;;8.00;;
5869;SDS011;2961;47.702;9.410;2023-02-21T14:08:58;10.40;;;8.10;;
5869;SDS011;2961;47.702;9.410;2023-02-21T14:11:29;13.60;;;7.73;;
5869;SDS011;2961;47.702;9.410;2023-02-21T14:14:03;10.27;;;8.20;;
5869;SDS011;2961;47.702;9.410;2023-02-21T14:16:45;8.77;;;7.47;;
5869;SDS011;2961;47.702;9.410;2023-02-21T14:19:18;11.30;;;8.20;;
5869;SDS011;2961;47.702;9.410;2023-02-21T14:21:55;14.03;;;8.80;;
5869;SDS011;2961;47.702;9.410;2023-02-21T14:24:27;16.90;;;10.07;;
5869;SDS011;2961;47.702;9.410;2023-02-21T14:27:00;24.27;;;10.00;;
5869;SDS011;2961;47.702;9.410;2023-02-21T14:29:36;12.77;;;7.83;;
5869;SDS011;2961;47.702;9.410;2023-02-21T14:32:15;16.20;;;9.80;;
5869;SDS011;2961;47.702;9.410;2023-02-21T14:34:52;14.83;;;7.60;;
5869;SDS011;2961;47.702;9.410;2023-02-21T14:37:23;15.47;;;9.27;;
5869;SDS011;2961;47.702;9.410;2023-02-21T14:39:53;15.37;;;9.40;;
5869;SDS011;2961;47.702;9.410;2023-02-21T14:42:29;16.13;;;9.43;;
5869;SDS011;2961;47.702;9.410;2023-02-21T14:45:18;8.50;;;7.40;;
5869;SDS011;2961;47.702;9.410;2023-02-21T14:47:57;12.63;;;7.87;;
5869;SDS011;2961;47.702;9.410;2023-02-21T14:50:37;12.02;;;9.10;;
5869;SDS011;2961;47.702;9.410;2023-02-21T14:53:38;18.20;;;10.07;;
5869;SDS011;2961;47.702;9.410;2023-02-21T14:56:34;12.73;;;9.40;;
5869;SDS011;2961;47.702;9.410;2023-02-21T14:59:24;11.07;;;8.10;;
5869;SDS011;2961;47.702;9.410;2023-02-21T15:02:08;14.50;;;8.00;;
5869;SDS011;2961;47.702;9.410;2023-02-21T15:04:42;13.23;;;10.20;;
5869;SDS011;2961;47.702;9.410;2023-02-21T15:07:18;20.83;;;8.63;;
5869;SDS011;2961;47.702;9.410;2023-02-21T15:12:49;12.70;;;8.70;;
5869;SDS011;2961;47.702;9.410;2023-02-21T15:15:18;11.00;;;8.97;;
5869;SDS011;2961;47.702;9.410;2023-02-21T15:17:58;14.30;;;9.50;;
5869;SDS011;2961;47.702;9.410;2023-02-21T15:20:28;11.18;;;9.50;;
5869;SDS011;2961;47.702;9.410;2023-02-21T15:23:00;12.50;;;9.73;;
5869;SDS011;2961;47.702;9.410;2023-02-21T15:25:35;14.67;;;8.60;;
5869;SDS011;2961;47.702;9.410;2023-02-21T15:28:04;11.50;;;8.60;;
5869;SDS011;2961;47.702;9.410;2023-02-21T15:30:36;12.10;;;9.13;;
5869;SDS011;2961;47.702;9.410;2023-02-21T15:33:06;10.50;;;7.80;;
5869;SDS011;2961;47.702;9.410;2023-02-21T15:35:38;16.30;;;9.33;;
5869;SDS011;2961;47.702;9.410;2023-02-21T15:38:10;14.30;;;9.07;;
5869;SDS011;2961;47.702;9.410;2023-02-21T15:40:42;13.57;;;8.93;;
5869;SDS011;2961;47.702;9.410;2023-02-21T15:43:12;10.60;;;8.50;;
5869;SDS011;2961;47.702;9.410;2023-02-21T15:45:56;11.20;;;7.97;;
5869;SDS011;2961;47.702;9.410;2023-02-21T15:48:26;15.20;;;10.07;;
5869;SDS011;2961;47.702;9.410;2023-02-21T15:50:53;13.10;;;9.17;;
5869;SDS011;2961;47.702;9.410;2023-02-21T15:53:27;15.53;;;9.47;;
5869;SDS011;2961;47.702;9.410;2023-02-21T15:55:54;14.40;;;9.00;;
5869;SDS011;2961;47.702;9.410;2023-02-21T16:01:27;13.23;;;8.73;;
5869;SDS011;2961;47.702;9.410;2023-02-21T16:03:59;18.30;;;9.67;;